createdAt,value
2019-02-02T00:00:44.567Z,93.75
2019-02-02T00:01:44.505Z,93.85
2019-02-02T00:02:44.483Z,93.56
2019-02-02T00:03:44.390Z,93.85
2019-02-02T00:04:44.361Z,93.28
2019-02-02T00:05:44.272Z,93.18
2019-02-02T00:06:44.222Z,93.18
2019-02-02T00:07:44.156Z,93.47
2019-02-02T00:08:44.097Z,93.37
2019-02-02T00:09:44.069Z,93.47
2019-02-02T00:10:43.979Z,93.18
2019-02-02T00:11:43.922Z,93.28
2019-02-02T00:12:43.861Z,93.09
2019-02-02T00:13:43.801Z,93.09
2019-02-02T00:14:45.255Z,93.37
2019-02-02T00:15:43.685Z,93.18
2019-02-02T00:16:43.627Z,93.47
2019-02-02T00:17:43.566Z,93.47
2019-02-02T00:18:43.521Z,93.09
2019-02-02T00:19:43.483Z,93.09
2019-02-02T00:20:43.396Z,93.47
2019-02-02T00:21:43.334Z,93.28
2019-02-02T00:22:43.279Z,93.37
2019-02-02T00:23:43.250Z,93.66
2019-02-02T00:24:43.164Z,93.85
2019-02-02T00:25:43.101Z,94.13
2019-02-02T00:26:43.041Z,93.75
2019-02-02T00:27:42.987Z,93.56
2019-02-02T00:28:42.953Z,93.75
2019-02-02T00:29:42.863Z,93.94
2019-02-02T00:30:42.807Z,94.51
2019-02-02T00:31:42.750Z,94.13
2019-02-02T00:32:42.694Z,94.42
2019-02-02T00:33:42.655Z,94.32
2019-02-02T00:34:42.607Z,94.32
2019-02-02T00:35:42.517Z,94.51
2019-02-02T00:36:42.458Z,94.51
2019-02-02T00:37:42.398Z,94.42
2019-02-02T00:38:42.340Z,94.13
2019-02-02T00:39:42.311Z,93.75
2019-02-02T00:40:42.228Z,93.09
2019-02-02T00:41:42.162Z,93.37
2019-02-02T00:42:42.102Z,92.99
2019-02-02T00:43:42.079Z,93.28
2019-02-02T00:44:41.991Z,93.37
2019-02-02T00:45:41.937Z,92.90
2019-02-02T00:46:41.909Z,92.99
2019-02-02T00:47:41.812Z,93.28
2019-02-02T00:48:41.756Z,93.18
2019-02-02T00:49:41.694Z,93.56
2019-02-02T00:50:41.636Z,92.80
2019-02-02T00:51:41.615Z,92.90
2019-02-02T00:52:41.519Z,92.52
2019-02-02T00:53:41.462Z,92.71
2019-02-02T00:54:41.407Z,92.71
2019-02-02T00:55:41.342Z,92.43
2019-02-02T00:56:41.332Z,92.43
2019-02-02T00:57:52.707Z,92.14
2019-02-02T00:58:41.167Z,92.33
2019-02-02T00:59:41.110Z,92.52
2019-02-02T01:00:41.091Z,92.80
2019-02-02T01:01:40.996Z,92.61
2019-02-02T01:02:40.936Z,92.71
2019-02-02T01:03:40.875Z,92.43
2019-02-02T01:04:40.815Z,93.37
2019-02-02T01:05:40.796Z,93.37
2019-02-02T01:06:40.804Z,93.09
2019-02-02T01:07:40.641Z,93.37
2019-02-02T01:08:40.582Z,93.47
2019-02-02T01:09:40.525Z,93.94
2019-02-02T01:10:40.496Z,93.85
2019-02-02T01:11:40.407Z,94.42
2019-02-02T01:12:40.398Z,94.13
2019-02-02T01:13:40.287Z,94.51
2019-02-02T01:14:40.231Z,94.13
2019-02-02T01:15:40.169Z,94.51
2019-02-02T01:16:40.111Z,94.23
2019-02-02T01:17:40.086Z,94.13
2019-02-02T01:18:40.050Z,95.07
2019-02-02T01:19:39.940Z,95.07
2019-02-02T01:20:39.878Z,95.17
2019-02-02T01:21:39.854Z,94.70
2019-02-02T01:22:39.760Z,95.07
2019-02-02T01:23:39.745Z,95.26
2019-02-02T01:24:39.650Z,95.26
2019-02-02T01:25:39.585Z,95.07
2019-02-02T01:26:39.530Z,95.26
2019-02-02T01:27:39.470Z,95.17
2019-02-02T01:28:39.443Z,94.98
2019-02-02T01:29:39.352Z,95.07
2019-02-02T01:30:39.295Z,95.17
2019-02-02T01:31:39.234Z,95.45
2019-02-02T01:32:39.210Z,95.17
2019-02-02T01:33:39.118Z,94.98
2019-02-02T01:34:39.093Z,95.17
2019-02-02T01:35:39.000Z,95.07
2019-02-02T01:36:38.945Z,94.89
2019-02-02T01:37:38.885Z,94.42
2019-02-02T01:38:38.829Z,94.13
2019-02-02T01:39:38.803Z,94.42
2019-02-02T01:40:38.708Z,94.13
2019-02-02T01:41:38.648Z,94.13
2019-02-02T01:42:38.595Z,94.13
2019-02-02T01:43:38.531Z,94.32
2019-02-02T01:44:38.516Z,94.13
2019-02-02T01:45:38.417Z,94.51
2019-02-02T01:46:38.360Z,94.89
2019-02-02T01:47:38.297Z,94.23
2019-02-02T01:48:38.244Z,94.70
2019-02-02T01:49:38.213Z,94.70
2019-02-02T01:50:38.122Z,95.07
2019-02-02T01:51:38.065Z,94.60
2019-02-02T01:52:38.008Z,94.13
2019-02-02T01:53:37.949Z,94.23
2019-02-02T01:54:38.466Z,94.23
2019-02-02T01:55:37.831Z,94.13
2019-02-02T01:56:37.771Z,94.13
2019-02-02T01:57:37.740Z,94.23
2019-02-02T01:58:37.652Z,94.60
2019-02-02T01:59:37.598Z,94.51
2019-02-02T02:00:37.567Z,94.79
2019-02-02T02:01:37.487Z,94.89
2019-02-02T02:02:37.420Z,95.26
2019-02-02T02:03:37.393Z,95.17
2019-02-02T02:04:37.304Z,95.07
2019-02-02T02:05:37.246Z,95.26
2019-02-02T02:06:37.220Z,95.07
2019-02-02T02:07:37.128Z,94.70
2019-02-02T02:08:37.076Z,94.79
2019-02-02T02:09:37.013Z,94.32
2019-02-02T02:10:36.955Z,94.32
2019-02-02T02:11:36.928Z,94.13
2019-02-02T02:12:36.843Z,94.04
2019-02-02T02:13:36.778Z,94.60
2019-02-02T02:14:36.755Z,94.60
2019-02-02T02:15:36.664Z,94.23
2019-02-02T02:16:36.603Z,94.70
2019-02-02T02:17:36.543Z,94.60
2019-02-02T02:18:36.486Z,94.51
2019-02-02T02:19:36.473Z,94.89
2019-02-02T02:20:36.369Z,94.42
2019-02-02T02:21:36.312Z,94.23
2019-02-02T02:22:41.108Z,94.04
2019-02-02T02:23:36.196Z,94.13
2019-02-02T02:24:36.166Z,94.32
2019-02-02T02:25:36.078Z,94.89
2019-02-02T02:26:36.020Z,94.42
2019-02-02T02:27:35.960Z,94.98
2019-02-02T02:28:35.926Z,95.07
2019-02-02T02:29:35.879Z,94.89
2019-02-02T02:30:35.782Z,94.60
2019-02-02T02:31:35.728Z,94.32
2019-02-02T02:32:35.668Z,94.42
2019-02-02T02:33:35.611Z,94.23
2019-02-02T02:34:35.594Z,94.79
2019-02-02T02:35:35.553Z,94.79
2019-02-02T02:36:35.431Z,93.94
2019-02-02T02:37:35.384Z,94.98
2019-02-02T02:38:35.317Z,94.89
2019-02-02T02:39:35.298Z,94.23
2019-02-02T02:40:35.199Z,94.13
2019-02-02T02:41:35.138Z,94.32
2019-02-02T02:42:35.081Z,94.23
2019-02-02T02:43:35.030Z,93.47
2019-02-02T02:44:35.000Z,92.99
2019-02-02T02:45:34.908Z,93.09
2019-02-02T02:46:34.880Z,92.61
2019-02-02T02:47:34.788Z,91.96
2019-02-02T02:48:34.730Z,92.24
2019-02-02T02:49:34.677Z,91.58
2019-02-02T02:50:34.615Z,91.20
2019-02-02T02:51:34.586Z,91.39
2019-02-02T02:52:34.505Z,90.82
2019-02-02T02:53:34.484Z,91.01
2019-02-02T02:54:34.380Z,91.01
2019-02-02T02:55:34.320Z,90.82
2019-02-02T02:56:34.285Z,90.34
2019-02-02T02:57:34.202Z,91.10
2019-02-02T02:58:41.500Z,90.63
2019-02-02T02:59:34.088Z,90.63
2019-02-02T03:00:34.026Z,90.63
2019-02-02T03:01:34.000Z,90.44
2019-02-02T03:02:33.911Z,90.44
2019-02-02T03:03:33.850Z,90.25
2019-02-02T03:04:33.789Z,90.53
2019-02-02T03:05:33.742Z,90.53
2019-02-02T03:06:33.700Z,90.53
2019-02-02T03:07:33.619Z,90.34
2019-02-02T03:08:33.564Z,90.82
2019-02-02T03:09:33.494Z,90.72
2019-02-02T03:10:33.438Z,91.10
2019-02-02T03:11:33.426Z,91.29
2019-02-02T03:12:33.318Z,91.29
2019-02-02T03:13:33.260Z,91.01
2019-02-02T03:14:33.199Z,91.29
2019-02-02T03:15:33.145Z,91.20
2019-02-02T03:16:33.117Z,91.20
2019-02-02T03:17:33.027Z,91.48
2019-02-02T03:18:32.971Z,91.29
2019-02-02T03:19:32.953Z,91.48
2019-02-02T03:20:32.850Z,91.67
2019-02-02T03:21:32.793Z,91.58
2019-02-02T03:22:32.732Z,91.58
2019-02-02T03:23:32.674Z,91.39
2019-02-02T03:24:32.644Z,91.86
2019-02-02T03:25:32.566Z,91.58
2019-02-02T03:26:32.496Z,92.52
2019-02-02T03:27:32.442Z,92.33
2019-02-02T03:28:32.380Z,92.24
2019-02-02T03:29:32.352Z,92.33
2019-02-02T03:30:32.336Z,92.43
2019-02-02T03:31:32.207Z,92.43
2019-02-02T03:32:32.195Z,92.90
2019-02-02T03:33:32.092Z,92.71
2019-02-02T03:34:32.028Z,92.52
2019-02-02T03:35:32.008Z,92.99
2019-02-02T03:36:31.909Z,93.28
2019-02-02T03:37:31.852Z,93.18
2019-02-02T03:38:31.794Z,93.09
2019-02-02T03:39:31.734Z,93.37
2019-02-02T03:40:31.731Z,93.09
2019-02-02T03:41:31.617Z,93.37
2019-02-02T03:42:31.563Z,93.37
2019-02-02T03:43:31.501Z,93.18
2019-02-02T03:44:31.446Z,93.56
2019-02-02T03:45:31.414Z,93.37
2019-02-02T03:46:31.379Z,93.47
2019-02-02T03:47:31.267Z,93.18
2019-02-02T03:48:31.207Z,93.47
2019-02-02T03:49:31.150Z,93.47
2019-02-02T03:50:31.098Z,93.75
2019-02-02T03:51:31.062Z,93.75
2019-02-02T03:52:30.974Z,93.85
2019-02-02T03:53:30.948Z,93.75
2019-02-02T03:54:30.857Z,93.75
2019-02-02T03:55:30.799Z,93.56
2019-02-02T03:56:30.744Z,93.66
2019-02-02T03:57:30.681Z,93.75
2019-02-02T03:58:30.655Z,93.75
2019-02-02T03:59:30.566Z,93.85
2019-02-02T04:00:30.509Z,93.85
2019-02-02T04:01:30.447Z,93.94
2019-02-02T04:02:30.389Z,93.75
2019-02-02T04:03:30.465Z,93.75
2019-02-02T04:04:30.274Z,94.32
2019-02-02T04:05:30.213Z,94.23
2019-02-02T04:06:30.152Z,93.94
2019-02-02T04:07:30.129Z,93.85
2019-02-02T04:08:30.081Z,93.66
2019-02-02T04:09:29.978Z,93.37
2019-02-02T04:10:29.925Z,93.18
2019-02-02T04:11:29.862Z,93.75
2019-02-02T04:12:29.808Z,93.75
2019-02-02T04:13:29.784Z,93.85
2019-02-02T04:14:29.690Z,93.47
2019-02-02T04:15:29.633Z,93.47
2019-02-02T04:16:29.571Z,93.85
2019-02-02T04:17:29.513Z,93.85
2019-02-02T04:18:29.486Z,93.56
2019-02-02T04:19:29.398Z,93.66
2019-02-02T04:20:29.337Z,93.75
2019-02-02T04:21:29.310Z,93.75
2019-02-02T04:22:29.218Z,93.47
2019-02-02T04:23:29.171Z,93.75
2019-02-02T04:24:29.144Z,93.47
2019-02-02T04:25:29.046Z,93.94
2019-02-02T04:26:28.985Z,93.85
2019-02-02T04:27:28.930Z,93.94
2019-02-02T04:28:28.867Z,93.09
2019-02-02T04:29:28.848Z,93.37
2019-02-02T04:30:28.751Z,93.28
2019-02-02T04:31:28.699Z,93.37
2019-02-02T04:32:28.634Z,93.28
2019-02-02T04:33:28.576Z,93.18
2019-02-02T04:34:28.559Z,93.18
2019-02-02T04:35:28.459Z,93.47
2019-02-02T04:36:28.401Z,93.37
2019-02-02T04:37:28.346Z,93.56
2019-02-02T04:38:28.285Z,93.18
2019-02-02T04:39:28.257Z,93.28
2019-02-02T04:40:28.167Z,93.09
2019-02-02T04:41:28.109Z,93.47
2019-02-02T04:42:28.048Z,93.47
2019-02-02T04:43:28.027Z,93.85
2019-02-02T04:44:27.934Z,93.56
2019-02-02T04:45:27.874Z,93.75
2019-02-02T04:46:27.819Z,93.85
2019-02-02T04:47:27.756Z,93.85
2019-02-02T04:48:27.730Z,94.32
2019-02-02T04:49:27.642Z,94.23
2019-02-02T04:50:27.584Z,94.13
2019-02-02T04:51:27.557Z,94.32
2019-02-02T04:52:27.464Z,94.13
2019-02-02T04:53:27.435Z,94.42
2019-02-02T04:54:27.349Z,94.42
2019-02-02T04:55:27.330Z,94.42
2019-02-02T04:56:27.228Z,94.23
2019-02-02T04:57:27.173Z,94.32
2019-02-02T04:58:27.116Z,94.13
2019-02-02T04:59:29.299Z,94.42
2019-02-02T05:00:27.035Z,94.42
2019-02-02T05:01:26.939Z,94.42
2019-02-02T05:02:26.915Z,94.51
2019-02-02T05:03:26.823Z,93.56
2019-02-02T05:04:26.763Z,93.75
2019-02-02T05:05:26.708Z,93.75
2019-02-02T05:06:26.647Z,93.66
2019-02-02T05:07:26.614Z,93.94
2019-02-02T05:08:26.530Z,93.37
2019-02-02T05:09:26.470Z,93.18
2019-02-02T05:10:26.410Z,93.56
2019-02-02T05:11:26.393Z,93.18
2019-02-02T05:12:26.304Z,93.09
2019-02-02T05:13:26.241Z,93.28
2019-02-02T05:14:26.178Z,93.37
2019-02-02T05:15:26.121Z,93.18
2019-02-02T05:16:26.096Z,93.09
2019-02-02T05:17:26.002Z,93.28
2019-02-02T05:18:25.947Z,93.18
2019-02-02T05:19:25.888Z,93.85
2019-02-02T05:20:25.827Z,93.75
2019-02-02T05:21:25.800Z,93.66
2019-02-02T05:22:25.710Z,93.85
2019-02-02T05:23:25.667Z,93.66
2019-02-02T05:24:25.593Z,93.66
2019-02-02T05:25:25.534Z,93.66
2019-02-02T05:26:25.543Z,93.75
2019-02-02T05:27:25.438Z,93.75
2019-02-02T05:28:25.359Z,93.94
2019-02-02T05:29:25.316Z,93.75
2019-02-02T05:30:25.255Z,93.56
2019-02-02T05:31:25.216Z,93.75
2019-02-02T05:32:25.157Z,93.56
2019-02-02T05:33:25.068Z,93.56
2019-02-02T05:34:25.014Z,93.85
2019-02-02T05:35:24.953Z,93.75
2019-02-02T05:36:24.918Z,93.09
2019-02-02T05:37:24.832Z,93.75
2019-02-02T05:38:24.815Z,93.18
2019-02-02T05:39:24.726Z,93.28
2019-02-02T05:40:24.673Z,93.18
2019-02-02T05:41:24.598Z,93.18
2019-02-02T05:42:24.575Z,93.37
2019-02-02T05:43:24.482Z,93.18
2019-02-02T05:44:24.435Z,93.37
2019-02-02T05:45:24.398Z,93.37
2019-02-02T05:46:24.308Z,93.47
2019-02-02T05:47:24.250Z,92.99
2019-02-02T05:48:24.189Z,93.28
2019-02-02T05:49:24.139Z,93.18
2019-02-02T05:50:24.105Z,93.09
2019-02-02T05:51:24.018Z,93.28
2019-02-02T05:52:24.001Z,93.47
2019-02-02T05:53:23.898Z,93.18
2019-02-02T05:54:23.842Z,93.28
2019-02-02T05:55:23.785Z,93.94
2019-02-02T05:56:23.726Z,93.56
2019-02-02T05:57:23.699Z,93.28
2019-02-02T05:58:23.628Z,93.47
2019-02-02T05:59:23.551Z,92.99
2019-02-02T06:00:23.521Z,93.37
2019-02-02T06:01:23.433Z,92.61
2019-02-02T06:02:23.372Z,92.71
2019-02-02T06:03:23.357Z,92.99
2019-02-02T06:04:23.257Z,93.09
2019-02-02T06:05:23.204Z,92.90
2019-02-02T06:06:23.138Z,93.28
2019-02-02T06:07:23.082Z,92.71
2019-02-02T06:08:23.061Z,93.18
2019-02-02T06:09:23.018Z,92.80
2019-02-02T06:10:22.909Z,92.52
2019-02-02T06:11:22.881Z,92.71
2019-02-02T06:12:22.787Z,92.99
2019-02-02T06:13:22.731Z,92.61
2019-02-02T06:14:22.678Z,92.61
2019-02-02T06:15:22.617Z,92.90
2019-02-02T06:16:22.589Z,92.99
2019-02-02T06:17:22.502Z,92.71
2019-02-02T06:18:22.435Z,92.80
2019-02-02T06:19:22.378Z,92.99
2019-02-02T06:20:22.323Z,92.71
2019-02-02T06:21:22.299Z,92.80
2019-02-02T06:22:22.202Z,92.33
2019-02-02T06:23:22.145Z,92.14
2019-02-02T06:24:22.089Z,92.24
2019-02-02T06:25:22.028Z,92.33
2019-02-02T06:26:22.001Z,92.33
2019-02-02T06:27:21.911Z,91.58
2019-02-02T06:28:21.853Z,91.48
2019-02-02T06:29:21.792Z,91.39
2019-02-02T06:30:21.736Z,91.58
2019-02-02T06:31:21.709Z,91.77
2019-02-02T06:32:21.649Z,91.39
2019-02-02T06:33:21.561Z,91.39
2019-02-02T06:34:21.500Z,91.58
2019-02-02T06:35:21.446Z,91.39
2019-02-02T06:36:21.388Z,91.29
2019-02-02T06:37:21.364Z,91.58
2019-02-02T06:38:21.270Z,91.39
2019-02-02T06:39:21.215Z,91.48
2019-02-02T06:40:21.178Z,91.77
2019-02-02T06:41:21.096Z,91.67
2019-02-02T06:42:21.032Z,91.58
2019-02-02T06:43:20.975Z,92.71
2019-02-02T06:44:20.948Z,92.43
2019-02-02T06:45:20.856Z,92.33
2019-02-02T06:46:20.797Z,92.52
2019-02-02T06:47:20.736Z,92.14
2019-02-02T06:48:20.682Z,92.24
2019-02-02T06:49:20.764Z,92.05
2019-02-02T06:50:20.563Z,92.24
2019-02-02T06:51:20.507Z,92.14
2019-02-02T06:52:20.448Z,92.52
2019-02-02T06:53:20.391Z,92.43
2019-02-02T06:54:20.370Z,92.33
2019-02-02T06:55:20.271Z,92.33
2019-02-02T06:56:20.214Z,92.43
2019-02-02T06:57:20.155Z,92.33
2019-02-02T06:58:20.096Z,92.80
2019-02-02T06:59:20.081Z,92.43
2019-02-02T07:00:19.986Z,92.43
2019-02-02T07:01:19.921Z,92.24
2019-02-02T07:02:19.862Z,92.24
2019-02-02T07:03:19.808Z,92.33
2019-02-02T07:04:19.775Z,92.24
2019-02-02T07:05:19.687Z,92.24
2019-02-02T07:06:19.665Z,92.24
2019-02-02T07:07:19.569Z,92.05
2019-02-02T07:08:19.511Z,92.80
2019-02-02T07:09:19.484Z,92.24
2019-02-02T07:10:19.428Z,92.90
2019-02-02T07:11:19.345Z,92.43
2019-02-02T07:12:19.310Z,92.90
2019-02-02T07:13:19.223Z,92.90
2019-02-02T07:14:19.243Z,92.80
2019-02-02T07:15:19.127Z,92.61
2019-02-02T07:16:19.077Z,92.80
2019-02-02T07:17:18.989Z,92.90
2019-02-02T07:18:18.926Z,92.90
2019-02-02T07:19:18.864Z,93.28
2019-02-02T07:20:18.810Z,92.61
2019-02-02T07:21:18.791Z,92.71
2019-02-02T07:22:18.691Z,92.24
2019-02-02T07:23:18.663Z,91.96
2019-02-02T07:24:18.574Z,92.14
2019-02-02T07:25:18.517Z,92.05
2019-02-02T07:26:18.458Z,91.86
2019-02-02T07:27:18.398Z,91.58
2019-02-02T07:28:18.375Z,91.29
2019-02-02T07:29:18.282Z,91.67
2019-02-02T07:30:28.310Z,91.67
2019-02-02T07:31:18.178Z,91.77
2019-02-02T07:32:18.110Z,91.58
2019-02-02T07:33:18.082Z,91.58
2019-02-02T07:34:17.990Z,91.29
2019-02-02T07:35:17.931Z,91.01
2019-02-02T07:36:17.917Z,91.20
2019-02-02T07:37:17.811Z,91.58
2019-02-02T07:38:17.795Z,91.48
2019-02-02T07:39:17.693Z,91.48
2019-02-02T07:40:17.637Z,91.67
2019-02-02T07:41:17.608Z,91.39
2019-02-02T07:42:18.423Z,91.58
2019-02-02T07:43:17.491Z,91.58
2019-02-02T07:44:17.405Z,91.39
2019-02-02T07:45:17.480Z,91.29
2019-02-02T07:46:17.284Z,91.67
2019-02-02T07:47:17.227Z,91.58
2019-02-02T07:48:17.212Z,91.77
2019-02-02T07:49:17.107Z,91.48
2019-02-02T07:50:17.058Z,91.67
2019-02-02T07:51:17.122Z,91.48
2019-02-02T07:52:16.932Z,91.29
2019-02-02T07:53:16.980Z,91.48
2019-02-02T07:54:16.814Z,91.39
2019-02-02T07:55:16.756Z,91.86
2019-02-02T07:56:16.700Z,91.67
2019-02-02T07:57:16.638Z,91.67
2019-02-02T07:58:16.612Z,91.86
2019-02-02T07:59:16.554Z,92.05
2019-02-02T08:00:16.493Z,92.47
2019-02-02T08:01:16.399Z,92.43
2019-02-02T08:02:16.343Z,92.52
2019-02-02T08:03:16.286Z,92.24
2019-02-02T08:04:16.233Z,92.71
2019-02-02T08:05:16.228Z,92.52
2019-02-02T08:06:16.111Z,92.76
2019-02-02T08:07:16.050Z,92.90
2019-02-02T08:08:17.081Z,93.09
2019-02-02T08:09:15.930Z,92.85
2019-02-02T08:10:15.905Z,92.71
2019-02-02T08:11:15.814Z,92.85
2019-02-02T08:12:15.757Z,92.94
2019-02-02T08:13:15.724Z,93.32
2019-02-02T08:14:15.740Z,93.04
2019-02-02T08:15:15.578Z,93.51
2019-02-02T08:16:15.523Z,93.23
2019-02-02T08:17:15.513Z,93.70
2019-02-02T08:18:15.411Z,93.51
2019-02-02T08:19:15.344Z,93.37
2019-02-02T08:20:15.341Z,93.99
2019-02-02T08:21:15.226Z,93.61
2019-02-02T08:22:15.202Z,93.80
2019-02-02T08:23:15.110Z,93.94
2019-02-02T08:24:15.090Z,93.61
2019-02-02T08:25:14.996Z,94.56
2019-02-02T08:26:14.937Z,94.46
2019-02-02T08:27:14.878Z,93.89
2019-02-02T08:28:14.852Z,94.46
2019-02-02T08:29:14.760Z,94.32
2019-02-02T08:30:16.601Z,94.56
2019-02-02T08:31:14.642Z,94.46
2019-02-02T08:32:14.584Z,94.46
2019-02-02T08:33:14.559Z,94.37
2019-02-02T08:34:14.466Z,93.99
2019-02-02T08:35:14.408Z,94.27
2019-02-02T08:36:14.349Z,95.03
2019-02-02T08:37:14.290Z,94.84
2019-02-02T08:38:14.262Z,94.93
2019-02-02T08:39:14.175Z,94.74
2019-02-02T08:40:14.114Z,95.40
2019-02-02T08:41:14.054Z,94.93
2019-02-02T08:42:13.999Z,95.40
2019-02-02T08:43:13.976Z,95.50
2019-02-02T08:44:13.882Z,95.69
2019-02-02T08:45:13.827Z,95.97
2019-02-02T08:46:13.813Z,96.35
2019-02-02T08:47:13.715Z,96.26
2019-02-02T08:48:13.683Z,95.88
2019-02-02T08:49:13.589Z,96.54
2019-02-02T08:50:13.532Z,96.26
2019-02-02T08:51:13.603Z,96.07
2019-02-02T08:52:13.447Z,96.54
2019-02-02T08:53:13.355Z,96.54
2019-02-02T08:54:13.299Z,96.54
2019-02-02T08:55:13.240Z,96.64
2019-02-02T08:56:13.292Z,96.92
2019-02-02T08:57:13.161Z,96.83
2019-02-02T08:58:13.213Z,97.02
2019-02-02T08:59:13.005Z,97.39
2019-02-02T09:00:12.946Z,97.20
2019-02-02T09:01:12.889Z,97.39
2019-02-02T09:02:12.881Z,97.87
2019-02-02T09:03:12.802Z,97.49
2019-02-02T09:04:12.766Z,97.39
2019-02-02T09:05:12.656Z,97.68
2019-02-02T09:06:12.598Z,98.06
2019-02-02T09:07:12.623Z,98.06
2019-02-02T09:08:12.481Z,98.15
2019-02-02T09:09:12.419Z,98.15
2019-02-02T09:10:12.364Z,97.87
2019-02-02T09:11:12.305Z,97.77
2019-02-02T09:12:12.290Z,98.82
2019-02-02T09:13:12.189Z,99.19
2019-02-02T09:14:12.133Z,99.29
2019-02-02T09:15:12.085Z,99.48
2019-02-02T09:16:12.020Z,99.66
2019-02-02T09:17:11.987Z,99.57
2019-02-02T09:18:11.895Z,99.29
2019-02-02T09:19:11.839Z,99.99
2019-02-02T09:20:11.783Z,99.99
2019-02-02T09:21:11.756Z,99.99
2019-02-02T09:22:11.666Z,99.99
2019-02-02T09:23:11.610Z,99.99
2019-02-02T09:24:11.549Z,99.99
2019-02-02T09:25:11.493Z,99.99
2019-02-02T09:26:11.469Z,99.95
2019-02-02T09:27:11.383Z,99.57
2019-02-02T09:28:11.318Z,99.10
2019-02-02T09:29:11.259Z,98.91
2019-02-02T09:30:11.228Z,99.38
2019-02-02T09:31:15.970Z,99.19
2019-02-02T09:32:11.088Z,99.38
2019-02-02T09:33:11.026Z,99.57
2019-02-02T09:34:10.969Z,99.19
2019-02-02T09:35:10.910Z,99.19
2019-02-02T09:36:10.882Z,99.19
2019-02-02T09:37:10.794Z,99.19
2019-02-02T09:38:12.233Z,99.19
2019-02-02T09:39:10.677Z,99.48
2019-02-02T09:40:10.624Z,99.48
2019-02-02T09:41:10.595Z,99.85
2019-02-02T09:42:10.503Z,99.99
2019-02-02T09:43:10.447Z,99.95
2019-02-02T09:44:10.417Z,99.99
2019-02-02T09:45:10.325Z,99.99
2019-02-02T09:46:10.268Z,99.99
2019-02-02T09:47:10.215Z,99.99
2019-02-02T09:48:10.156Z,99.99
2019-02-02T09:49:10.145Z,99.99
2019-02-02T09:50:10.035Z,99.99
2019-02-02T09:51:09.979Z,99.99
2019-02-02T09:52:09.920Z,99.99
2019-02-02T09:53:09.860Z,99.99
2019-02-02T09:54:09.836Z,99.99
2019-02-02T09:55:09.781Z,99.99
2019-02-02T09:56:09.692Z,99.99
2019-02-02T09:57:09.630Z,99.99
2019-02-02T09:58:09.572Z,99.99
2019-02-02T09:59:09.903Z,99.99
2019-02-02T10:00:09.499Z,99.99
2019-02-02T10:01:09.397Z,99.99
2019-02-02T10:02:09.338Z,99.99
2019-02-02T10:03:09.282Z,99.99
2019-02-02T10:04:09.224Z,99.99
2019-02-02T10:05:09.279Z,99.99
2019-02-02T10:06:09.109Z,99.99
2019-02-02T10:07:09.065Z,99.99
2019-02-02T10:08:09.022Z,99.99
2019-02-02T10:09:08.988Z,99.99
2019-02-02T10:10:08.911Z,99.99
2019-02-02T10:11:08.853Z,99.99
2019-02-02T10:12:08.762Z,99.99
2019-02-02T10:13:08.699Z,99.99
2019-02-02T10:14:08.641Z,99.99
2019-02-02T10:15:08.659Z,99.99
2019-02-02T10:16:08.625Z,99.99
2019-02-02T10:17:08.585Z,99.99
2019-02-02T10:18:08.452Z,99.99
2019-02-02T10:19:08.352Z,99.99
2019-02-02T10:20:08.303Z,99.99
2019-02-02T10:21:08.237Z,99.99
2019-02-02T10:22:08.314Z,99.99
2019-02-02T10:23:08.158Z,99.99
2019-02-02T10:24:08.062Z,99.99
2019-02-02T10:25:08.006Z,99.99
2019-02-02T10:26:07.946Z,99.99
2019-02-02T10:27:07.887Z,99.99
2019-02-02T10:28:07.862Z,99.99
2019-02-02T10:29:07.769Z,99.99
2019-02-02T10:30:07.716Z,99.99
2019-02-02T10:31:07.767Z,99.99
2019-02-02T10:32:07.722Z,99.99
2019-02-02T10:33:07.541Z,99.99
2019-02-02T10:34:07.511Z,99.99
2019-02-02T10:35:07.454Z,99.99
2019-02-02T10:36:07.362Z,99.99
2019-02-02T10:37:07.303Z,99.99
2019-02-02T10:38:07.289Z,99.99
2019-02-02T10:39:07.188Z,99.99
2019-02-02T10:40:07.163Z,99.99
2019-02-02T10:41:07.078Z,99.99
2019-02-02T10:42:07.015Z,99.99
2019-02-02T10:43:06.960Z,99.99
2019-02-02T10:44:06.943Z,99.99
2019-02-02T10:45:06.841Z,99.99
2019-02-02T10:46:06.782Z,99.99
2019-02-02T10:47:06.722Z,99.99
2019-02-02T10:48:06.702Z,99.99
2019-02-02T10:49:06.639Z,99.99
2019-02-02T10:50:06.550Z,99.99
2019-02-02T10:51:06.493Z,99.99
2019-02-02T10:52:06.438Z,99.99
2019-02-02T10:53:06.413Z,99.99
2019-02-02T10:54:06.326Z,99.99
2019-02-02T10:55:06.261Z,99.99
2019-02-02T10:56:06.201Z,99.99
2019-02-02T10:57:06.142Z,99.99
2019-02-02T10:58:06.140Z,99.99
2019-02-02T10:59:06.030Z,99.99
2019-02-02T11:00:05.967Z,99.99
2019-02-02T11:01:05.910Z,99.99
2019-02-02T11:02:05.852Z,99.99
2019-02-02T11:03:05.832Z,99.99
2019-02-02T11:04:05.782Z,99.99
2019-02-02T11:05:05.914Z,99.99
2019-02-02T11:06:05.651Z,99.99
2019-02-02T11:07:05.682Z,99.99
2019-02-02T11:08:05.560Z,99.99
2019-02-02T11:09:05.587Z,99.99
2019-02-02T11:10:05.415Z,99.99
2019-02-02T11:11:05.462Z,99.99
2019-02-02T11:12:05.271Z,99.99
2019-02-02T11:13:05.298Z,99.99
2019-02-02T11:14:05.167Z,99.99
2019-02-02T11:15:05.099Z,99.99
2019-02-02T11:16:08.290Z,99.99
2019-02-02T11:17:05.065Z,99.99
2019-02-02T11:18:05.060Z,99.99
2019-02-02T11:19:05.090Z,99.99
2019-02-02T11:20:04.863Z,99.99
2019-02-02T11:21:04.814Z,99.99
2019-02-02T11:22:04.770Z,99.99
2019-02-02T11:23:04.645Z,99.99
2019-02-02T11:24:04.619Z,99.99
2019-02-02T11:25:04.590Z,99.99
2019-02-02T11:26:04.614Z,99.99
2019-02-02T11:27:04.531Z,99.99
2019-02-02T11:28:04.611Z,99.99
2019-02-02T11:29:04.323Z,99.99
2019-02-02T11:30:04.336Z,99.99
2019-02-02T11:31:04.246Z,99.99
2019-02-02T11:32:04.177Z,99.99
2019-02-02T11:33:04.151Z,99.99
2019-02-02T11:34:05.141Z,99.99
2019-02-02T11:35:04.019Z,99.99
2019-02-02T11:36:03.996Z,99.99
2019-02-02T11:37:04.043Z,99.99
2019-02-02T11:38:03.895Z,99.99
2019-02-02T11:39:03.749Z,99.99
2019-02-02T11:40:03.729Z,99.99
2019-02-02T11:41:03.699Z,99.99
2019-02-02T11:42:04.537Z,99.99
2019-02-02T11:43:03.722Z,99.99
2019-02-02T11:44:03.584Z,99.99
2019-02-02T11:45:03.591Z,99.99
2019-02-02T11:46:03.434Z,99.99
2019-02-02T11:47:03.358Z,99.99
2019-02-02T11:48:03.401Z,99.99
2019-02-02T11:49:03.190Z,99.99
2019-02-02T11:50:03.166Z,99.99
2019-02-02T11:51:03.160Z,99.99
2019-02-02T11:52:03.021Z,99.99
2019-02-02T11:53:02.914Z,99.99
2019-02-02T11:54:02.918Z,99.99
2019-02-02T11:55:02.845Z,99.99
2019-02-02T11:56:02.799Z,99.99
2019-02-02T11:57:02.658Z,99.99
2019-02-02T11:58:02.652Z,99.99
2019-02-02T11:59:02.797Z,99.99
2019-02-02T12:00:02.636Z,99.99
2019-02-02T12:01:02.531Z,99.99
2019-02-02T12:02:14.052Z,99.99
2019-02-02T12:03:04.312Z,99.99
2019-02-02T12:04:02.287Z,99.99
2019-02-02T12:05:02.199Z,99.99
2019-02-02T12:06:02.138Z,99.99
2019-02-02T12:07:02.074Z,99.99
2019-02-02T12:08:02.062Z,99.99
2019-02-02T12:09:01.957Z,99.99
2019-02-02T12:10:01.904Z,99.99
2019-02-02T12:11:01.846Z,99.99
2019-02-02T12:12:01.785Z,99.99
2019-02-02T12:13:01.816Z,99.99
2019-02-02T12:14:01.668Z,99.99
2019-02-02T12:15:01.659Z,99.99
2019-02-02T12:16:01.557Z,99.99
2019-02-02T12:17:01.494Z,99.99
2019-02-02T12:18:01.471Z,99.99
2019-02-02T12:19:01.387Z,99.99
2019-02-02T12:20:01.353Z,99.99
2019-02-02T12:21:01.271Z,99.99
2019-02-02T12:22:01.294Z,99.99
2019-02-02T12:23:01.181Z,99.99
2019-02-02T12:24:12.695Z,99.99
2019-02-02T12:25:01.898Z,99.99
2019-02-02T12:26:00.974Z,99.99
2019-02-02T12:27:00.917Z,99.99
2019-02-02T12:28:00.890Z,99.99
2019-02-02T12:29:00.803Z,99.99
2019-02-02T12:30:00.745Z,99.99
2019-02-02T12:31:00.723Z,99.99
2019-02-02T12:32:00.662Z,99.99
2019-02-02T12:33:02.875Z,99.99
2019-02-02T12:34:00.514Z,99.99
2019-02-02T12:35:00.458Z,99.99
2019-02-02T12:36:00.432Z,99.99
2019-02-02T12:37:00.348Z,99.99
2019-02-02T12:38:00.326Z,99.99
2019-02-02T12:39:00.227Z,99.99
2019-02-02T12:40:00.237Z,99.99
2019-02-02T12:41:00.116Z,99.99
2019-02-02T12:42:00.107Z,99.99
2019-02-02T12:43:00.003Z,99.99
2019-02-02T12:43:59.943Z,99.99
2019-02-02T12:44:59.884Z,99.99
2019-02-02T12:45:59.830Z,99.99
2019-02-02T12:46:59.803Z,99.99
2019-02-02T12:47:59.714Z,99.99
2019-02-02T12:48:59.661Z,99.99
2019-02-02T12:49:59.599Z,99.99
2019-02-02T12:50:59.573Z,99.99
2019-02-02T12:51:59.489Z,99.99